sensor_id;sensor_type;location;lat;lon;timestamp;P1;durP1;ratioP1;P2;durP2;ratioP2
4533;SDS011;2279;51.448;7.306;2022-09-09T00:00:39;3.53;;;2.10;;
4533;SDS011;2279;51.448;7.306;2022-09-09T00:03:19;3.33;;;2.20;;
4533;SDS011;2279;51.448;7.306;2022-09-09T00:05:50;5.57;;;1.93;;
4533;SDS011;2279;51.448;7.306;2022-09-09T00:08:19;4.23;;;2.03;;
4533;SDS011;2279;51.448;7.306;2022-09-09T00:10:45;4.10;;;1.90;;
4533;SDS011;2279;51.448;7.306;2022-09-09T00:13:23;2.97;;;2.40;;
4533;SDS011;2279;51.448;7.306;2022-09-09T00:15:55;8.60;;;2.20;;
4533;SDS011;2279;51.448;7.306;2022-09-09T00:18:24;2.30;;;2.10;;
4533;SDS011;2279;51.448;7.306;2022-09-09T00:21:07;3.10;;;2.30;;
4533;SDS011;2279;51.448;7.306;2022-09-09T00:23:37;3.50;;;2.00;;
4533;SDS011;2279;51.448;7.306;2022-09-09T00:28:39;3.13;;;2.20;;
4533;SDS011;2279;51.448;7.306;2022-09-09T00:31:11;2.80;;;2.00;;
4533;SDS011;2279;51.448;7.306;2022-09-09T00:33:37;2.30;;;2.20;;
4533;SDS011;2279;51.448;7.306;2022-09-09T00:36:04;5.63;;;2.67;;
4533;SDS011;2279;51.448;7.306;2022-09-09T00:38:36;2.17;;;1.97;;
4533;SDS011;2279;51.448;7.306;2022-09-09T00:41:10;2.30;;;2.10;;
4533;SDS011;2279;51.448;7.306;2022-09-09T00:43:37;4.70;;;2.10;;
4533;SDS011;2279;51.448;7.306;2022-09-09T00:48:59;5.30;;;2.10;;
4533;SDS011;2279;51.448;7.306;2022-09-09T00:54:02;2.80;;;2.60;;
4533;SDS011;2279;51.448;7.306;2022-09-09T00:56:38;3.50;;;3.20;;
4533;SDS011;2279;51.448;7.306;2022-09-09T01:01:36;6.20;;;4.00;;
4533;SDS011;2279;51.448;7.306;2022-09-09T01:04:04;4.90;;;4.00;;
4533;SDS011;2279;51.448;7.306;2022-09-09T01:06:34;4.20;;;3.90;;
4533;SDS011;2279;51.448;7.306;2022-09-09T01:11:51;7.93;;;4.43;;
4533;SDS011;2279;51.448;7.306;2022-09-09T01:16:48;4.23;;;3.77;;
4533;SDS011;2279;51.448;7.306;2022-09-09T01:19:18;7.63;;;4.40;;
4533;SDS011;2279;51.448;7.306;2022-09-09T01:21:50;7.17;;;3.90;;
4533;SDS011;2279;51.448;7.306;2022-09-09T01:27:06;11.73;;;4.20;;
4533;SDS011;2279;51.448;7.306;2022-09-09T01:29:32;4.93;;;2.97;;
4533;SDS011;2279;51.448;7.306;2022-09-09T01:31:59;3.90;;;3.00;;
4533;SDS011;2279;51.448;7.306;2022-09-09T01:34:31;4.70;;;3.53;;
4533;SDS011;2279;51.448;7.306;2022-09-09T01:37:02;3.73;;;3.33;;
4533;SDS011;2279;51.448;7.306;2022-09-09T01:39:35;6.43;;;3.03;;
4533;SDS011;2279;51.448;7.306;2022-09-09T01:42:02;3.97;;;3.23;;
4533;SDS011;2279;51.448;7.306;2022-09-09T01:44:29;6.47;;;3.87;;
4533;SDS011;2279;51.448;7.306;2022-09-09T01:46:55;4.40;;;3.77;;
4533;SDS011;2279;51.448;7.306;2022-09-09T01:49:21;5.90;;;4.27;;
4533;SDS011;2279;51.448;7.306;2022-09-09T01:51:49;7.10;;;4.10;;
4533;SDS011;2279;51.448;7.306;2022-09-09T01:54:15;15.00;;;4.80;;
4533;SDS011;2279;51.448;7.306;2022-09-09T01:56:44;4.30;;;4.00;;
4533;SDS011;2279;51.448;7.306;2022-09-09T02:04:33;3.93;;;3.63;;
4533;SDS011;2279;51.448;7.306;2022-09-09T02:07:02;6.63;;;3.30;;
4533;SDS011;2279;51.448;7.306;2022-09-09T02:09:31;5.70;;;3.30;;
4533;SDS011;2279;51.448;7.306;2022-09-09T02:12:11;5.87;;;3.17;;
4533;SDS011;2279;51.448;7.306;2022-09-09T02:14:40;4.90;;;3.60;;
4533;SDS011;2279;51.448;7.306;2022-09-09T02:17:08;4.70;;;3.30;;
4533;SDS011;2279;51.448;7.306;2022-09-09T02:19:37;7.13;;;3.80;;
4533;SDS011;2279;51.448;7.306;2022-09-09T02:22:03;3.80;;;3.50;;
4533;SDS011;2279;51.448;7.306;2022-09-09T02:24:30;4.57;;;3.60;;
4533;SDS011;2279;51.448;7.306;2022-09-09T02:26:58;3.43;;;3.00;;
4533;SDS011;2279;51.448;7.306;2022-09-09T02:29:27;8.80;;;3.57;;
4533;SDS011;2279;51.448;7.306;2022-09-09T02:31:53;6.50;;;3.80;;
4533;SDS011;2279;51.448;7.306;2022-09-09T02:34:21;3.57;;;2.97;;
4533;SDS011;2279;51.448;7.306;2022-09-09T02:36:49;4.00;;;3.60;;
4533;SDS011;2279;51.448;7.306;2022-09-09T02:39:17;8.53;;;2.73;;
4533;SDS011;2279;51.448;7.306;2022-09-09T02:41:43;5.13;;;2.83;;
4533;SDS011;2279;51.448;7.306;2022-09-09T02:44:10;3.07;;;2.77;;
4533;SDS011;2279;51.448;7.306;2022-09-09T02:49:09;3.13;;;2.50;;
4533;SDS011;2279;51.448;7.306;2022-09-09T02:56:52;5.37;;;3.13;;
4533;SDS011;2279;51.448;7.306;2022-09-09T02:59:22;5.90;;;2.93;;
4533;SDS011;2279;51.448;7.306;2022-09-09T03:01:50;4.63;;;3.80;;
4533;SDS011;2279;51.448;7.306;2022-09-09T03:04:16;4.13;;;3.03;;
4533;SDS011;2279;51.448;7.306;2022-09-09T03:06:42;7.00;;;3.50;;
4533;SDS011;2279;51.448;7.306;2022-09-09T03:09:08;8.07;;;3.30;;
4533;SDS011;2279;51.448;7.306;2022-09-09T03:11:35;5.60;;;4.07;;
4533;SDS011;2279;51.448;7.306;2022-09-09T03:14:01;4.53;;;2.87;;
4533;SDS011;2279;51.448;7.306;2022-09-09T03:16:27;7.93;;;3.50;;
4533;SDS011;2279;51.448;7.306;2022-09-09T03:18:53;6.80;;;3.87;;
4533;SDS011;2279;51.448;7.306;2022-09-09T03:21:19;4.73;;;2.80;;
4533;SDS011;2279;51.448;7.306;2022-09-09T03:23:45;5.97;;;3.40;;
4533;SDS011;2279;51.448;7.306;2022-09-09T03:26:11;8.50;;;3.20;;
4533;SDS011;2279;51.448;7.306;2022-09-09T03:28:40;3.60;;;3.30;;
4533;SDS011;2279;51.448;7.306;2022-09-09T03:31:05;4.20;;;3.50;;
4533;SDS011;2279;51.448;7.306;2022-09-09T03:33:38;5.83;;;3.67;;
4533;SDS011;2279;51.448;7.306;2022-09-09T03:36:06;8.57;;;3.17;;
4533;SDS011;2279;51.448;7.306;2022-09-09T03:38:33;6.70;;;3.10;;
4533;SDS011;2279;51.448;7.306;2022-09-09T03:40:59;6.30;;;2.57;;
4533;SDS011;2279;51.448;7.306;2022-09-09T03:43:27;4.80;;;2.80;;
4533;SDS011;2279;51.448;7.306;2022-09-09T03:45:53;3.90;;;2.70;;
4533;SDS011;2279;51.448;7.306;2022-09-09T03:48:22;6.47;;;2.90;;
4533;SDS011;2279;51.448;7.306;2022-09-09T03:50:50;9.13;;;2.77;;
4533;SDS011;2279;51.448;7.306;2022-09-09T03:53:17;8.10;;;2.70;;
4533;SDS011;2279;51.448;7.306;2022-09-09T03:55:47;8.67;;;2.80;;
4533;SDS011;2279;51.448;7.306;2022-09-09T03:58:14;4.63;;;2.60;;
4533;SDS011;2279;51.448;7.306;2022-09-09T04:00:40;7.43;;;3.20;;
4533;SDS011;2279;51.448;7.306;2022-09-09T04:03:10;8.40;;;2.40;;
4533;SDS011;2279;51.448;7.306;2022-09-09T04:05:36;2.60;;;2.30;;
4533;SDS011;2279;51.448;7.306;2022-09-09T04:08:05;4.53;;;2.73;;
4533;SDS011;2279;51.448;7.306;2022-09-09T04:10:31;11.00;;;3.57;;
4533;SDS011;2279;51.448;7.306;2022-09-09T04:12:57;4.53;;;3.10;;
4533;SDS011;2279;51.448;7.306;2022-09-09T04:15:24;6.50;;;3.20;;
4533;SDS011;2279;51.448;7.306;2022-09-09T04:17:50;3.47;;;3.17;;
4533;SDS011;2279;51.448;7.306;2022-09-09T04:20:16;4.30;;;2.50;;
4533;SDS011;2279;51.448;7.306;2022-09-09T04:22:42;5.03;;;2.40;;
4533;SDS011;2279;51.448;7.306;2022-09-09T04:25:08;8.73;;;2.97;;
4533;SDS011;2279;51.448;7.306;2022-09-09T04:27:34;4.87;;;2.90;;
4533;SDS011;2279;51.448;7.306;2022-09-09T04:30:00;9.00;;;2.73;;
4533;SDS011;2279;51.448;7.306;2022-09-09T04:32:26;11.63;;;3.00;;
4533;SDS011;2279;51.448;7.306;2022-09-09T04:34:52;4.07;;;2.80;;
4533;SDS011;2279;51.448;7.306;2022-09-09T04:37:18;5.23;;;2.83;;
4533;SDS011;2279;51.448;7.306;2022-09-09T04:39:44;5.40;;;2.63;;
4533;SDS011;2279;51.448;7.306;2022-09-09T04:42:10;5.37;;;3.37;;
4533;SDS011;2279;51.448;7.306;2022-09-09T04:44:36;5.40;;;3.20;;
4533;SDS011;2279;51.448;7.306;2022-09-09T04:47:02;3.60;;;3.20;;
4533;SDS011;2279;51.448;7.306;2022-09-09T04:49:28;5.20;;;2.67;;
4533;SDS011;2279;51.448;7.306;2022-09-09T04:51:55;6.00;;;4.20;;
4533;SDS011;2279;51.448;7.306;2022-09-09T04:54:21;3.83;;;2.70;;
4533;SDS011;2279;51.448;7.306;2022-09-09T04:56:49;5.97;;;3.60;;
4533;SDS011;2279;51.448;7.306;2022-09-09T04:59:15;7.10;;;3.20;;
4533;SDS011;2279;51.448;7.306;2022-09-09T05:01:41;7.07;;;3.13;;
4533;SDS011;2279;51.448;7.306;2022-09-09T05:04:07;3.33;;;3.03;;
4533;SDS011;2279;51.448;7.306;2022-09-09T05:06:33;5.17;;;2.67;;
4533;SDS011;2279;51.448;7.306;2022-09-09T05:09:01;6.43;;;3.20;;
4533;SDS011;2279;51.448;7.306;2022-09-09T05:11:28;6.20;;;3.30;;
4533;SDS011;2279;51.448;7.306;2022-09-09T05:13:55;5.33;;;2.77;;
4533;SDS011;2279;51.448;7.306;2022-09-09T05:16:22;4.60;;;2.57;;
4533;SDS011;2279;51.448;7.306;2022-09-09T05:18:48;5.07;;;2.63;;
4533;SDS011;2279;51.448;7.306;2022-09-09T05:21:16;7.03;;;2.70;;
4533;SDS011;2279;51.448;7.306;2022-09-09T05:23:43;3.83;;;2.80;;
4533;SDS011;2279;51.448;7.306;2022-09-09T05:26:12;7.30;;;3.37;;
4533;SDS011;2279;51.448;7.306;2022-09-09T05:28:38;4.03;;;2.93;;
4533;SDS011;2279;51.448;7.306;2022-09-09T05:31:08;4.70;;;2.67;;
4533;SDS011;2279;51.448;7.306;2022-09-09T05:33:36;6.37;;;2.97;;
4533;SDS011;2279;51.448;7.306;2022-09-09T05:36:03;4.40;;;2.87;;
4533;SDS011;2279;51.448;7.306;2022-09-09T05:38:30;5.40;;;2.60;;
4533;SDS011;2279;51.448;7.306;2022-09-09T05:40:56;6.97;;;3.57;;
4533;SDS011;2279;51.448;7.306;2022-09-09T05:43:22;5.67;;;2.73;;
4533;SDS011;2279;51.448;7.306;2022-09-09T05:45:58;4.23;;;2.97;;
4533;SDS011;2279;51.448;7.306;2022-09-09T05:48:27;4.53;;;2.83;;
4533;SDS011;2279;51.448;7.306;2022-09-09T05:50:53;4.67;;;2.80;;
4533;SDS011;2279;51.448;7.306;2022-09-09T05:53:19;6.80;;;2.97;;
4533;SDS011;2279;51.448;7.306;2022-09-09T05:55:46;4.50;;;2.70;;
4533;SDS011;2279;51.448;7.306;2022-09-09T05:58:12;3.80;;;2.30;;
4533;SDS011;2279;51.448;7.306;2022-09-09T06:00:40;6.30;;;2.60;;
4533;SDS011;2279;51.448;7.306;2022-09-09T06:03:06;7.27;;;2.83;;
4533;SDS011;2279;51.448;7.306;2022-09-09T06:05:32;8.30;;;3.03;;
4533;SDS011;2279;51.448;7.306;2022-09-09T06:07:59;6.63;;;2.43;;
4533;SDS011;2279;51.448;7.306;2022-09-09T06:10:25;6.23;;;2.50;;
4533;SDS011;2279;51.448;7.306;2022-09-09T06:12:52;5.53;;;2.37;;
4533;SDS011;2279;51.448;7.306;2022-09-09T06:15:18;4.13;;;2.47;;
4533;SDS011;2279;51.448;7.306;2022-09-09T06:17:44;11.57;;;3.60;;
4533;SDS011;2279;51.448;7.306;2022-09-09T06:20:10;4.97;;;2.50;;
4533;SDS011;2279;51.448;7.306;2022-09-09T06:22:38;24.10;;;12.70;;
4533;SDS011;2279;51.448;7.306;2022-09-09T06:25:05;3.93;;;2.03;;
4533;SDS011;2279;51.448;7.306;2022-09-09T06:27:31;5.50;;;2.80;;
4533;SDS011;2279;51.448;7.306;2022-09-09T06:29:57;4.60;;;2.43;;
4533;SDS011;2279;51.448;7.306;2022-09-09T06:32:23;3.97;;;2.63;;
4533;SDS011;2279;51.448;7.306;2022-09-09T06:34:49;7.00;;;2.30;;
4533;SDS011;2279;51.448;7.306;2022-09-09T06:37:15;10.57;;;2.70;;
4533;SDS011;2279;51.448;7.306;2022-09-09T06:39:41;9.97;;;3.03;;
4533;SDS011;2279;51.448;7.306;2022-09-09T06:42:07;5.33;;;2.20;;
4533;SDS011;2279;51.448;7.306;2022-09-09T06:44:34;3.17;;;2.27;;
4533;SDS011;2279;51.448;7.306;2022-09-09T06:47:01;3.33;;;2.43;;
4533;SDS011;2279;51.448;7.306;2022-09-09T06:49:27;6.77;;;2.70;;
4533;SDS011;2279;51.448;7.306;2022-09-09T06:51:53;4.23;;;2.40;;
4533;SDS011;2279;51.448;7.306;2022-09-09T06:54:19;4.33;;;2.10;;
4533;SDS011;2279;51.448;7.306;2022-09-09T06:56:47;5.33;;;2.13;;
4533;SDS011;2279;51.448;7.306;2022-09-09T06:59:14;3.77;;;1.90;;
4533;SDS011;2279;51.448;7.306;2022-09-09T07:01:41;2.47;;;2.03;;
4533;SDS011;2279;51.448;7.306;2022-09-09T07:04:16;5.17;;;2.90;;
4533;SDS011;2279;51.448;7.306;2022-09-09T07:06:44;5.23;;;2.37;;
4533;SDS011;2279;51.448;7.306;2022-09-09T07:09:11;6.50;;;2.40;;
4533;SDS011;2279;51.448;7.306;2022-09-09T07:11:38;5.50;;;2.40;;
4533;SDS011;2279;51.448;7.306;2022-09-09T07:14:06;3.33;;;1.70;;
4533;SDS011;2279;51.448;7.306;2022-09-09T07:16:32;5.20;;;2.00;;
4533;SDS011;2279;51.448;7.306;2022-09-09T07:19:01;9.47;;;2.43;;
4533;SDS011;2279;51.448;7.306;2022-09-09T07:21:28;3.17;;;1.87;;
4533;SDS011;2279;51.448;7.306;2022-09-09T07:23:54;2.53;;;1.80;;
4533;SDS011;2279;51.448;7.306;2022-09-09T07:26:21;3.40;;;1.60;;
4533;SDS011;2279;51.448;7.306;2022-09-09T07:28:48;1.97;;;1.60;;
4533;SDS011;2279;51.448;7.306;2022-09-09T07:31:15;5.67;;;1.83;;
4533;SDS011;2279;51.448;7.306;2022-09-09T07:33:41;4.90;;;1.67;;
4533;SDS011;2279;51.448;7.306;2022-09-09T07:36:09;5.13;;;1.73;;
4533;SDS011;2279;51.448;7.306;2022-09-09T07:38:39;4.00;;;1.50;;
4533;SDS011;2279;51.448;7.306;2022-09-09T07:41:05;3.93;;;1.53;;
4533;SDS011;2279;51.448;7.306;2022-09-09T07:43:33;4.07;;;1.53;;
4533;SDS011;2279;51.448;7.306;2022-09-09T07:45:59;5.03;;;1.77;;
4533;SDS011;2279;51.448;7.306;2022-09-09T07:48:28;4.43;;;1.90;;
4533;SDS011;2279;51.448;7.306;2022-09-09T07:51:03;7.80;;;1.80;;
4533;SDS011;2279;51.448;7.306;2022-09-09T07:53:30;7.03;;;1.77;;
4533;SDS011;2279;51.448;7.306;2022-09-09T07:56:02;2.33;;;1.30;;
4533;SDS011;2279;51.448;7.306;2022-09-09T07:58:28;3.33;;;1.60;;
4533;SDS011;2279;51.448;7.306;2022-09-09T08:00:54;1.97;;;1.40;;
4533;SDS011;2279;51.448;7.306;2022-09-09T08:03:20;8.13;;;2.30;;
4533;SDS011;2279;51.448;7.306;2022-09-09T08:05:47;2.20;;;1.63;;
4533;SDS011;2279;51.448;7.306;2022-09-09T08:08:12;3.80;;;1.70;;
4533;SDS011;2279;51.448;7.306;2022-09-09T08:10:38;3.83;;;1.40;;
4533;SDS011;2279;51.448;7.306;2022-09-09T08:13:04;2.47;;;1.27;;
4533;SDS011;2279;51.448;7.306;2022-09-09T08:15:31;3.17;;;1.67;;
4533;SDS011;2279;51.448;7.306;2022-09-09T08:17:57;3.23;;;1.47;;
4533;SDS011;2279;51.448;7.306;2022-09-09T08:20:23;6.00;;;1.60;;
4533;SDS011;2279;51.448;7.306;2022-09-09T08:22:49;3.50;;;1.40;;
4533;SDS011;2279;51.448;7.306;2022-09-09T08:25:15;2.93;;;1.57;;
4533;SDS011;2279;51.448;7.306;2022-09-09T08:27:41;5.60;;;1.67;;
4533;SDS011;2279;51.448;7.306;2022-09-09T08:30:07;2.90;;;1.73;;
4533;SDS011;2279;51.448;7.306;2022-09-09T08:32:33;1.83;;;1.50;;
4533;SDS011;2279;51.448;7.306;2022-09-09T08:35:00;5.77;;;2.07;;
4533;SDS011;2279;51.448;7.306;2022-09-09T08:37:26;3.00;;;1.53;;
4533;SDS011;2279;51.448;7.306;2022-09-09T08:39:51;3.60;;;1.60;;
4533;SDS011;2279;51.448;7.306;2022-09-09T08:50:03;2.70;;;1.47;;
4533;SDS011;2279;51.448;7.306;2022-09-09T08:52:36;6.83;;;1.73;;
4533;SDS011;2279;51.448;7.306;2022-09-09T08:57:41;5.93;;;2.00;;
4533;SDS011;2279;51.448;7.306;2022-09-09T09:00:10;3.33;;;1.53;;
4533;SDS011;2279;51.448;7.306;2022-09-09T09:10:12;6.07;;;1.80;;
4533;SDS011;2279;51.448;7.306;2022-09-09T09:12:41;4.90;;;1.90;;
4533;SDS011;2279;51.448;7.306;2022-09-09T09:15:30;2.87;;;1.60;;
4533;SDS011;2279;51.448;7.306;2022-09-09T09:17:55;4.90;;;2.33;;
4533;SDS011;2279;51.448;7.306;2022-09-09T09:20:46;3.83;;;1.73;;
4533;SDS011;2279;51.448;7.306;2022-09-09T09:23:09;2.63;;;1.47;;
4533;SDS011;2279;51.448;7.306;2022-09-09T09:25:40;3.93;;;1.87;;
4533;SDS011;2279;51.448;7.306;2022-09-09T09:30:36;3.50;;;1.60;;
4533;SDS011;2279;51.448;7.306;2022-09-09T09:33:18;2.83;;;1.20;;
4533;SDS011;2279;51.448;7.306;2022-09-09T09:35:46;4.13;;;1.67;;
4533;SDS011;2279;51.448;7.306;2022-09-09T09:38:16;6.47;;;1.50;;
4533;SDS011;2279;51.448;7.306;2022-09-09T09:40:52;4.10;;;1.67;;
4533;SDS011;2279;51.448;7.306;2022-09-09T09:45:54;6.40;;;2.07;;
4533;SDS011;2279;51.448;7.306;2022-09-09T09:48:22;3.93;;;2.37;;
4533;SDS011;2279;51.448;7.306;2022-09-09T09:51:22;3.30;;;1.70;;
4533;SDS011;2279;51.448;7.306;2022-09-09T09:53:41;3.07;;;1.70;;
4533;SDS011;2279;51.448;7.306;2022-09-09T09:56:11;5.20;;;1.73;;
4533;SDS011;2279;51.448;7.306;2022-09-09T09:58:49;2.90;;;1.97;;
4533;SDS011;2279;51.448;7.306;2022-09-09T10:01:28;4.50;;;1.53;;
4533;SDS011;2279;51.448;7.306;2022-09-09T10:06:35;5.17;;;2.27;;
4533;SDS011;2279;51.448;7.306;2022-09-09T10:09:03;7.50;;;1.53;;
4533;SDS011;2279;51.448;7.306;2022-09-09T10:14:55;4.40;;;1.47;;
4533;SDS011;2279;51.448;7.306;2022-09-09T10:17:20;7.07;;;2.33;;
4533;SDS011;2279;51.448;7.306;2022-09-09T10:19:58;3.57;;;1.50;;
4533;SDS011;2279;51.448;7.306;2022-09-09T10:22:33;4.07;;;1.60;;
4533;SDS011;2279;51.448;7.306;2022-09-09T10:32:40;3.17;;;1.40;;
4533;SDS011;2279;51.448;7.306;2022-09-09T10:37:48;6.13;;;1.50;;
4533;SDS011;2279;51.448;7.306;2022-09-09T10:53:53;2.30;;;1.20;;
4533;SDS011;2279;51.448;7.306;2022-09-09T10:56:23;1.10;;;0.90;;
4533;SDS011;2279;51.448;7.306;2022-09-09T10:58:58;1.37;;;0.83;;
4533;SDS011;2279;51.448;7.306;2022-09-09T11:01:36;3.37;;;1.47;;
4533;SDS011;2279;51.448;7.306;2022-09-09T11:04:22;3.10;;;1.13;;
4533;SDS011;2279;51.448;7.306;2022-09-09T11:06:51;1.80;;;1.20;;
4533;SDS011;2279;51.448;7.306;2022-09-09T11:09:21;3.47;;;1.60;;
4533;SDS011;2279;51.448;7.306;2022-09-09T11:17:03;2.70;;;1.00;;
4533;SDS011;2279;51.448;7.306;2022-09-09T11:21:56;3.33;;;1.10;;
4533;SDS011;2279;51.448;7.306;2022-09-09T11:27:06;1.50;;;1.00;;
4533;SDS011;2279;51.448;7.306;2022-09-09T11:29:51;3.30;;;1.20;;
4533;SDS011;2279;51.448;7.306;2022-09-09T11:34:54;1.20;;;1.10;;
4533;SDS011;2279;51.448;7.306;2022-09-09T11:40:14;4.50;;;1.00;;
4533;SDS011;2279;51.448;7.306;2022-09-09T11:42:41;3.03;;;1.40;;
4533;SDS011;2279;51.448;7.306;2022-09-09T11:45:11;2.80;;;1.23;;
4533;SDS011;2279;51.448;7.306;2022-09-09T11:47:52;2.13;;;1.10;;
4533;SDS011;2279;51.448;7.306;2022-09-09T11:52:45;1.60;;;1.17;;
4533;SDS011;2279;51.448;7.306;2022-09-09T11:57:57;2.37;;;1.10;;
4533;SDS011;2279;51.448;7.306;2022-09-09T12:00:39;2.03;;;1.50;;
4533;SDS011;2279;51.448;7.306;2022-09-09T12:05:51;4.73;;;1.43;;
4533;SDS011;2279;51.448;7.306;2022-09-09T12:08:19;2.00;;;1.10;;
4533;SDS011;2279;51.448;7.306;2022-09-09T12:10:55;7.57;;;1.53;;
4533;SDS011;2279;51.448;7.306;2022-09-09T12:13:22;3.13;;;1.53;;
4533;SDS011;2279;51.448;7.306;2022-09-09T12:15:50;2.97;;;1.57;;
4533;SDS011;2279;51.448;7.306;2022-09-09T12:18:22;2.70;;;1.33;;
4533;SDS011;2279;51.448;7.306;2022-09-09T12:21:03;8.10;;;1.87;;
4533;SDS011;2279;51.448;7.306;2022-09-09T12:26:04;5.77;;;2.27;;
4533;SDS011;2279;51.448;7.306;2022-09-09T12:31:12;4.93;;;1.73;;
4533;SDS011;2279;51.448;7.306;2022-09-09T12:33:42;5.50;;;1.70;;
4533;SDS011;2279;51.448;7.306;2022-09-09T12:36:11;4.43;;;1.57;;
4533;SDS011;2279;51.448;7.306;2022-09-09T12:38:39;3.57;;;1.70;;
4533;SDS011;2279;51.448;7.306;2022-09-09T12:41:05;1.93;;;1.67;;
4533;SDS011;2279;51.448;7.306;2022-09-09T12:43:31;2.30;;;1.77;;
4533;SDS011;2279;51.448;7.306;2022-09-09T12:45:59;2.07;;;1.40;;
4533;SDS011;2279;51.448;7.306;2022-09-09T12:48:59;1.90;;;1.27;;
4533;SDS011;2279;51.448;7.306;2022-09-09T12:51:19;2.10;;;1.50;;
4533;SDS011;2279;51.448;7.306;2022-09-09T12:53:46;4.53;;;1.40;;
4533;SDS011;2279;51.448;7.306;2022-09-09T12:56:20;9.70;;;2.17;;
4533;SDS011;2279;51.448;7.306;2022-09-09T12:58:46;5.00;;;2.17;;
4533;SDS011;2279;51.448;7.306;2022-09-09T13:01:29;3.37;;;1.87;;
4533;SDS011;2279;51.448;7.306;2022-09-09T13:03:56;10.03;;;1.70;;
4533;SDS011;2279;51.448;7.306;2022-09-09T13:06:23;4.03;;;1.80;;
4533;SDS011;2279;51.448;7.306;2022-09-09T13:08:51;4.30;;;1.70;;
4533;SDS011;2279;51.448;7.306;2022-09-09T13:11:20;1.83;;;1.63;;
4533;SDS011;2279;51.448;7.306;2022-09-09T13:13:51;2.30;;;1.40;;
4533;SDS011;2279;51.448;7.306;2022-09-09T13:16:20;1.70;;;1.60;;
4533;SDS011;2279;51.448;7.306;2022-09-09T13:18:46;1.30;;;1.00;;
4533;SDS011;2279;51.448;7.306;2022-09-09T13:21:12;2.90;;;1.30;;
4533;SDS011;2279;51.448;7.306;2022-09-09T13:23:39;11.93;;;1.57;;
4533;SDS011;2279;51.448;7.306;2022-09-09T13:26:24;2.40;;;1.50;;
4533;SDS011;2279;51.448;7.306;2022-09-09T13:28:51;2.57;;;1.20;;
4533;SDS011;2279;51.448;7.306;2022-09-09T13:31:53;3.30;;;1.37;;
4533;SDS011;2279;51.448;7.306;2022-09-09T13:34:11;2.70;;;1.40;;
4533;SDS011;2279;51.448;7.306;2022-09-09T13:36:38;3.93;;;1.30;;
4533;SDS011;2279;51.448;7.306;2022-09-09T13:39:13;3.10;;;1.30;;
4533;SDS011;2279;51.448;7.306;2022-09-09T13:41:44;5.30;;;1.73;;
4533;SDS011;2279;51.448;7.306;2022-09-09T13:44:14;4.70;;;1.53;;
4533;SDS011;2279;51.448;7.306;2022-09-09T13:46:43;1.60;;;1.47;;
4533;SDS011;2279;51.448;7.306;2022-09-09T13:51:43;4.53;;;1.20;;
4533;SDS011;2279;51.448;7.306;2022-09-09T13:54:12;3.70;;;1.73;;
4533;SDS011;2279;51.448;7.306;2022-09-09T13:56:39;3.40;;;1.50;;
4533;SDS011;2279;51.448;7.306;2022-09-09T13:59:06;4.13;;;1.77;;
4533;SDS011;2279;51.448;7.306;2022-09-09T14:01:33;3.20;;;1.77;;
4533;SDS011;2279;51.448;7.306;2022-09-09T14:04:00;5.63;;;1.60;;
4533;SDS011;2279;51.448;7.306;2022-09-09T14:06:26;6.60;;;2.50;;
4533;SDS011;2279;51.448;7.306;2022-09-09T14:08:52;3.70;;;2.10;;
4533;SDS011;2279;51.448;7.306;2022-09-09T14:11:19;5.53;;;1.83;;
4533;SDS011;2279;51.448;7.306;2022-09-09T14:13:46;2.20;;;1.80;;
4533;SDS011;2279;51.448;7.306;2022-09-09T14:16:12;3.67;;;1.93;;
4533;SDS011;2279;51.448;7.306;2022-09-09T14:18:38;2.93;;;1.70;;
4533;SDS011;2279;51.448;7.306;2022-09-09T14:21:05;2.10;;;1.50;;
4533;SDS011;2279;51.448;7.306;2022-09-09T14:23:31;2.37;;;1.60;;
4533;SDS011;2279;51.448;7.306;2022-09-09T14:25:57;4.30;;;1.30;;
4533;SDS011;2279;51.448;7.306;2022-09-09T14:28:23;2.73;;;1.30;;
4533;SDS011;2279;51.448;7.306;2022-09-09T14:30:50;3.47;;;1.70;;
4533;SDS011;2279;51.448;7.306;2022-09-09T14:33:16;2.20;;;1.30;;
4533;SDS011;2279;51.448;7.306;2022-09-09T14:35:42;2.30;;;1.10;;
4533;SDS011;2279;51.448;7.306;2022-09-09T14:38:09;4.50;;;1.50;;
4533;SDS011;2279;51.448;7.306;2022-09-09T14:40:35;2.23;;;1.50;;
4533;SDS011;2279;51.448;7.306;2022-09-09T14:43:03;4.93;;;1.60;;
4533;SDS011;2279;51.448;7.306;2022-09-09T14:45:29;4.30;;;1.20;;
4533;SDS011;2279;51.448;7.306;2022-09-09T14:47:55;6.27;;;1.60;;
4533;SDS011;2279;51.448;7.306;2022-09-09T14:50:21;1.97;;;1.40;;
4533;SDS011;2279;51.448;7.306;2022-09-09T14:52:47;3.37;;;1.40;;
4533;SDS011;2279;51.448;7.306;2022-09-09T14:55:14;3.40;;;2.10;;
4533;SDS011;2279;51.448;7.306;2022-09-09T14:57:40;2.23;;;1.50;;
4533;SDS011;2279;51.448;7.306;2022-09-09T15:00:07;3.80;;;2.10;;
4533;SDS011;2279;51.448;7.306;2022-09-09T15:02:33;4.50;;;2.17;;
4533;SDS011;2279;51.448;7.306;2022-09-09T15:04:59;5.30;;;2.60;;
4533;SDS011;2279;51.448;7.306;2022-09-09T15:07:26;3.63;;;2.80;;
4533;SDS011;2279;51.448;7.306;2022-09-09T15:09:53;4.10;;;2.40;;
4533;SDS011;2279;51.448;7.306;2022-09-09T15:12:19;3.10;;;1.70;;
4533;SDS011;2279;51.448;7.306;2022-09-09T15:14:45;4.80;;;2.53;;
4533;SDS011;2279;51.448;7.306;2022-09-09T15:17:12;3.80;;;2.30;;
4533;SDS011;2279;51.448;7.306;2022-09-09T15:19:38;5.57;;;2.20;;
4533;SDS011;2279;51.448;7.306;2022-09-09T15:22:04;5.40;;;2.07;;
4533;SDS011;2279;51.448;7.306;2022-09-09T15:24:31;2.23;;;1.80;;
4533;SDS011;2279;51.448;7.306;2022-09-09T15:26:58;3.07;;;2.10;;
4533;SDS011;2279;51.448;7.306;2022-09-09T15:29:24;2.80;;;2.23;;
4533;SDS011;2279;51.448;7.306;2022-09-09T15:31:50;5.70;;;2.10;;
4533;SDS011;2279;51.448;7.306;2022-09-09T15:34:16;2.50;;;1.40;;
4533;SDS011;2279;51.448;7.306;2022-09-09T15:36:42;1.53;;;1.43;;
4533;SDS011;2279;51.448;7.306;2022-09-09T15:39:13;3.23;;;1.40;;
4533;SDS011;2279;51.448;7.306;2022-09-09T15:41:41;1.37;;;1.10;;
4533;SDS011;2279;51.448;7.306;2022-09-09T15:44:07;1.93;;;1.43;;
4533;SDS011;2279;51.448;7.306;2022-09-09T15:46:35;2.07;;;0.90;;
4533;SDS011;2279;51.448;7.306;2022-09-09T15:51:28;1.17;;;1.07;;
4533;SDS011;2279;51.448;7.306;2022-09-09T15:53:55;1.63;;;1.30;;
4533;SDS011;2279;51.448;7.306;2022-09-09T15:56:21;1.67;;;1.10;;
4533;SDS011;2279;51.448;7.306;2022-09-09T15:58:47;2.80;;;1.60;;
4533;SDS011;2279;51.448;7.306;2022-09-09T16:01:13;2.30;;;1.60;;
4533;SDS011;2279;51.448;7.306;2022-09-09T16:03:40;8.70;;;1.30;;
4533;SDS011;2279;51.448;7.306;2022-09-09T16:06:15;1.80;;;1.20;;
4533;SDS011;2279;51.448;7.306;2022-09-09T16:08:42;1.40;;;1.27;;
4533;SDS011;2279;51.448;7.306;2022-09-09T16:11:18;4.20;;;1.30;;
4533;SDS011;2279;51.448;7.306;2022-09-09T16:13:45;2.53;;;1.40;;
4533;SDS011;2279;51.448;7.306;2022-09-09T16:16:12;2.20;;;1.60;;
4533;SDS011;2279;51.448;7.306;2022-09-09T16:18:40;1.20;;;1.00;;
4533;SDS011;2279;51.448;7.306;2022-09-09T16:21:07;2.40;;;1.37;;
4533;SDS011;2279;51.448;7.306;2022-09-09T16:23:33;1.60;;;1.20;;
4533;SDS011;2279;51.448;7.306;2022-09-09T16:26:00;1.70;;;1.60;;
4533;SDS011;2279;51.448;7.306;2022-09-09T16:28:27;1.60;;;1.50;;
4533;SDS011;2279;51.448;7.306;2022-09-09T16:30:53;4.90;;;1.40;;
4533;SDS011;2279;51.448;7.306;2022-09-09T16:33:19;2.50;;;1.43;;
4533;SDS011;2279;51.448;7.306;2022-09-09T16:35:45;1.53;;;1.43;;
4533;SDS011;2279;51.448;7.306;2022-09-09T16:38:11;1.73;;;1.30;;
4533;SDS011;2279;51.448;7.306;2022-09-09T16:40:37;1.40;;;1.30;;
4533;SDS011;2279;51.448;7.306;2022-09-09T16:43:06;3.33;;;1.47;;
4533;SDS011;2279;51.448;7.306;2022-09-09T16:45:32;6.63;;;1.73;;
4533;SDS011;2279;51.448;7.306;2022-09-09T16:47:58;3.10;;;1.37;;
4533;SDS011;2279;51.448;7.306;2022-09-09T16:50:25;3.20;;;1.20;;
4533;SDS011;2279;51.448;7.306;2022-09-09T16:52:52;1.70;;;1.53;;
4533;SDS011;2279;51.448;7.306;2022-09-09T16:55:18;2.27;;;1.20;;
4533;SDS011;2279;51.448;7.306;2022-09-09T16:57:47;3.43;;;1.40;;
4533;SDS011;2279;51.448;7.306;2022-09-09T17:00:14;1.33;;;1.23;;
4533;SDS011;2279;51.448;7.306;2022-09-09T17:02:41;1.70;;;1.60;;
4533;SDS011;2279;51.448;7.306;2022-09-09T17:05:07;5.60;;;2.00;;
4533;SDS011;2279;51.448;7.306;2022-09-09T17:07:34;1.50;;;1.40;;
4533;SDS011;2279;51.448;7.306;2022-09-09T17:10:00;1.30;;;1.20;;
4533;SDS011;2279;51.448;7.306;2022-09-09T17:12:26;3.30;;;1.60;;
4533;SDS011;2279;51.448;7.306;2022-09-09T17:14:52;1.70;;;1.60;;
4533;SDS011;2279;51.448;7.306;2022-09-09T17:17:20;3.20;;;1.73;;
4533;SDS011;2279;51.448;7.306;2022-09-09T17:19:46;1.83;;;1.50;;